createdAt,value
2017-12-04T21:00:20.888Z,22.75
2017-12-04T21:01:33.946Z,22.82
2017-12-04T21:02:46.464Z,22.85
2017-12-04T21:03:58.501Z,22.85
2017-12-04T21:05:10.965Z,22.86
2017-12-04T21:06:23.930Z,22.86
2017-12-04T21:07:35.949Z,22.92
2017-12-04T21:08:48.424Z,22.82
2017-12-04T21:10:01.410Z,22.98
2017-12-04T21:11:14.572Z,22.97
2017-12-04T21:12:27.702Z,22.94
2017-12-04T21:13:40.671Z,22.86
2017-12-04T21:14:53.651Z,22.82
2017-12-04T21:16:06.378Z,22.7
2017-12-04T21:17:19.667Z,22.83
2017-12-04T21:18:32.180Z,22.73
2017-12-04T21:19:45.401Z,22.65
2017-12-04T21:20:58.009Z,22.52
2017-12-04T21:22:11.182Z,22.47
2017-12-04T21:23:24.143Z,22.33
2017-12-04T21:24:37.126Z,22.36
2017-12-04T21:25:50.142Z,22.37
2017-12-04T21:27:02.645Z,22.3
2017-12-04T21:28:15.623Z,22.35
2017-12-04T21:29:28.590Z,22.28
2017-12-04T21:30:41.540Z,22.21
2017-12-04T21:31:54.513Z,22.2
2017-12-04T21:33:07.026Z,22.18
2017-12-04T21:34:19.601Z,22.22
2017-12-04T21:35:32.556Z,22.25
2017-12-04T21:36:45.554Z,22.22
2017-12-04T21:37:57.569Z,22.2
2017-12-04T21:39:10.822Z,22.22
2017-12-04T21:40:22.892Z,22.06
2017-12-04T21:41:34.938Z,22.24
2017-12-04T21:42:47.892Z,22.14
2017-12-04T21:44:00.853Z,22.15
2017-12-04T21:45:14.018Z,22.1
2017-12-04T21:46:57.760Z,22.09
2017-12-04T21:48:10.693Z,22.1
2017-12-04T21:49:23.203Z,22.02
2017-12-04T21:50:36.118Z,22.12
2017-12-04T21:51:49.090Z,22.02
2017-12-04T21:53:01.191Z,22.06
2017-12-04T21:54:14.213Z,22.03
2017-12-04T21:55:27.499Z,22.07
2017-12-04T21:56:41.194Z,22.07
2017-12-04T21:57:54.374Z,22.06
2017-12-04T21:59:08.022Z,22.1
2017-12-04T22:00:21.414Z,22.12
2017-12-04T22:01:34.574Z,22.02
2017-12-04T22:02:48.257Z,22.05
2017-12-04T22:04:01.343Z,22.05
2017-12-04T22:05:14.985Z,22
2017-12-04T22:06:28.707Z,21.96
2017-12-04T22:07:41.870Z,21.99
2017-12-04T22:08:55.487Z,21.9
2017-12-04T22:10:09.184Z,21.92
2017-12-04T22:11:23.062Z,21.84
2017-12-04T22:12:36.728Z,21.86
2017-12-04T22:13:50.376Z,21.77
2017-12-04T22:15:03.530Z,21.8
2017-12-04T22:18:01.388Z,21.75
2017-12-04T22:19:15.070Z,21.74
2017-12-04T22:20:28.729Z,21.65
2017-12-04T22:21:41.866Z,21.58
2017-12-04T22:22:55.543Z,21.64
2017-12-04T22:24:08.669Z,21.54
2017-12-04T22:25:22.322Z,21.54
2017-12-04T22:26:36.001Z,21.54
2017-12-04T22:27:49.123Z,21.58
2017-12-04T22:29:02.262Z,21.47
2017-12-04T22:30:15.443Z,21.49
2017-12-04T22:31:29.108Z,21.52
2017-12-04T22:32:42.249Z,21.52
2017-12-04T22:33:54.960Z,21.49
2017-12-04T22:35:08.815Z,21.56
2017-12-04T22:36:22.114Z,21.49
2017-12-04T22:37:35.801Z,21.46
2017-12-04T22:38:48.957Z,21.35
2017-12-04T22:40:02.098Z,21.4
2017-12-04T22:41:46.810Z,21.34
2017-12-04T22:42:59.981Z,21.38
2017-12-04T22:44:13.347Z,21.4
2017-12-04T22:45:27.191Z,21.43
2017-12-04T22:46:39.981Z,21.38
2017-12-04T22:47:53.755Z,21.37
2017-12-04T22:49:06.989Z,21.34
2017-12-04T22:50:20.623Z,21.42
2017-12-04T22:51:34.296Z,21.38
2017-12-04T22:52:47.957Z,21.37
2017-12-04T22:54:01.110Z,21.31
2017-12-04T22:55:15.031Z,21.34
2017-12-04T22:56:28.699Z,21.32
2017-12-04T22:57:41.844Z,21.34
2017-12-04T22:58:55.478Z,21.27
2017-12-04T23:00:08.609Z,21.27
2017-12-04T23:01:21.750Z,21.24
2017-12-04T23:02:36.362Z,21.27
2017-12-04T23:03:50.021Z,21.29
2017-12-04T23:05:02.105Z,21.29
2017-12-04T23:06:14.970Z,21.17
2017-12-04T23:07:28.639Z,21.25
2017-12-04T23:08:42.310Z,21.22
2017-12-04T23:09:56.192Z,21.13
2017-12-04T23:11:09.862Z,21.1
2017-12-04T23:12:23.524Z,21.14
2017-12-04T23:13:37.202Z,21.06
2017-12-04T23:14:50.360Z,20.98
2017-12-04T23:16:03.004Z,21.04
2017-12-04T23:17:16.195Z,21.01
2017-12-04T23:18:29.851Z,20.94
2017-12-04T23:19:43.507Z,21.03
2017-12-04T23:20:57.224Z,20.99
2017-12-04T23:22:10.364Z,21.1
2017-12-04T23:23:24.324Z,21.07
2017-12-04T23:24:38.042Z,21.1
2017-12-04T23:25:51.242Z,21.1
2017-12-04T23:27:04.905Z,21.06
2017-12-04T23:28:18.576Z,21.16
2017-12-04T23:29:32.201Z,21.22
2017-12-04T23:30:45.394Z,21.17
2017-12-04T23:31:58.558Z,21.25
2017-12-04T23:33:11.928Z,21.29
2017-12-04T23:34:25.623Z,21.32
2017-12-04T23:35:39.295Z,21.35
2017-12-04T23:36:52.647Z,21.35
2017-12-04T23:38:06.366Z,21.5
2017-12-04T23:39:20.056Z,21.44
2017-12-04T23:40:33.231Z,21.47
2017-12-04T23:41:46.387Z,21.59
2017-12-04T23:43:00.038Z,21.46
2017-12-04T23:44:13.719Z,21.34
2017-12-04T23:45:27.386Z,21.42
2017-12-04T23:46:41.043Z,21.32
2017-12-04T23:47:54.141Z,21.25
2017-12-04T23:49:07.820Z,21.22
2017-12-04T23:50:21.564Z,21.24
2017-12-04T23:51:34.734Z,21.21
2017-12-04T23:52:48.409Z,21.24
2017-12-04T23:54:02.047Z,21.28
2017-12-04T23:55:15.141Z,21.21
2017-12-04T23:56:28.811Z,21.21
2017-12-04T23:57:41.443Z,21.22
2017-12-04T23:58:55.080Z,21.21
